LFRN/RNS METAR and TAF weather

Enter ICAO airport designator
Station Type Date Time Source
LFRN METAR 2019/10/15 03:30 UTC NOAA

LFRN 150330Z AUTO 20006KT CAVOK 10/10 Q1006 TEMPO 3000 BR BKN005


Station Type Date Time Source
LFRN Decoded METAR 2019/10/15 03:30 UTC NOAA

Rennes, France (LFRN) 48-04N 001-44W 37M
Oct 14, 2019 - 11:30 PM EDT / 2019.10.15 0330 UTC
Wind: from the SSW (200 degrees) at 7 MPH (6 KT):0
Visibility: greater than 7 mile(s):0
Temperature: 50 F (10 C)
Dew Point: 50 F (10 C)
Relative Humidity: 100%
Pressure (altimeter): 29.71 in. Hg (1006 hPa)
ob: LFRN 150330Z AUTO 20006KT CAVOK 10/10 Q1006 TEMPO 3000 BR BKN005
cycle: 3

Station Type Date Time Source
LFRN TAF 2019/10/14 18:25 UTC NOAA

TAF LFRN 141700Z 1418/1518 20010KT 9999 BKN020
TEMPO 1418/1424 5000 SHRA BKN013 PROB30
TEMPO 1500/1507 3000 BR BKN005
TEMPO 1510/1515 25015G25KT
TEMPO 1510/1518 4000 SHRA BKN015TCU

Example: see airport list